createdAt,value
2018-12-07T00:02:19.830Z,0.82
2018-12-07T00:04:46.186Z,0.85
2018-12-07T00:07:12.326Z,0.90
2018-12-07T00:09:38.446Z,0.90
2018-12-07T00:12:04.910Z,0.70
2018-12-07T00:14:31.152Z,0.88
2018-12-07T00:16:57.268Z,0.62
2018-12-07T00:19:23.377Z,1.60
2018-12-07T00:21:49.542Z,0.90
2018-12-07T00:24:16.649Z,1.00
2018-12-07T00:26:42.746Z,1.12
2018-12-07T00:29:08.921Z,0.75
2018-12-07T00:31:35.034Z,0.90
2018-12-07T00:34:01.237Z,0.88
2018-12-07T00:36:27.424Z,0.80
2018-12-07T00:38:53.534Z,0.78
2018-12-07T00:41:19.650Z,0.60
2018-12-07T00:43:45.773Z,1.07
2018-12-07T00:46:11.921Z,0.88
2018-12-07T00:48:38.017Z,0.70
2018-12-07T00:51:04.131Z,0.70
2018-12-07T00:53:30.342Z,0.80
2018-12-07T00:55:56.455Z,0.82
2018-12-07T00:58:22.568Z,0.88
2018-12-07T01:00:48.778Z,1.00
2018-12-07T01:03:14.942Z,0.75
2018-12-07T01:05:41.170Z,0.70
2018-12-07T01:08:07.270Z,0.57
2018-12-07T01:10:33.503Z,0.80
2018-12-07T01:12:59.715Z,0.60
2018-12-07T01:15:26.039Z,1.10
2018-12-07T01:17:52.142Z,0.75
2018-12-07T01:20:18.271Z,0.75
2018-12-07T01:22:44.390Z,0.50
2018-12-07T01:25:10.722Z,0.62
2018-12-07T01:27:36.948Z,0.65
2018-12-07T01:30:04.285Z,0.70
2018-12-07T01:32:30.413Z,0.60
2018-12-07T01:34:56.613Z,0.53
2018-12-07T01:37:22.750Z,0.60
2018-12-07T01:39:48.862Z,0.60
2018-12-07T01:42:15.002Z,0.50
2018-12-07T01:44:41.110Z,0.60
2018-12-07T01:47:07.258Z,0.75
2018-12-07T01:49:33.375Z,0.50
2018-12-07T01:51:59.507Z,0.50
2018-12-07T01:54:25.614Z,0.65
2018-12-07T01:56:51.726Z,0.42
2018-12-07T01:59:17.822Z,0.50
2018-12-07T02:01:43.938Z,0.57
2018-12-07T02:04:10.061Z,0.60
2018-12-07T02:06:36.176Z,0.88
2018-12-07T02:09:04.202Z,0.50
2018-12-07T02:11:30.322Z,0.50
2018-12-07T02:13:56.538Z,0.45
2018-12-07T02:16:22.635Z,0.70
2018-12-07T02:18:48.743Z,0.45
2018-12-07T02:21:14.869Z,0.60
2018-12-07T02:23:40.982Z,0.45
2018-12-07T02:26:07.850Z,0.40
2018-12-07T02:28:34.026Z,0.50
2018-12-07T02:31:00.130Z,0.70
2018-12-07T02:33:26.250Z,0.40
2018-12-07T02:35:52.353Z,0.50
2018-12-07T02:38:18.466Z,0.50
2018-12-07T02:40:44.587Z,0.42
2018-12-07T02:43:10.694Z,0.30
2018-12-07T02:45:36.957Z,0.50
2018-12-07T02:48:03.197Z,0.37
2018-12-07T02:50:29.297Z,0.50
2018-12-07T02:52:55.408Z,0.40
2018-12-07T02:55:21.514Z,0.60
2018-12-07T02:57:47.614Z,0.30
2018-12-07T03:00:13.764Z,0.42
2018-12-07T03:02:39.994Z,0.40
2018-12-07T03:05:06.333Z,0.30
2018-12-07T03:07:32.448Z,0.40
2018-12-07T03:09:59.573Z,0.40
2018-12-07T03:12:25.793Z,0.53
2018-12-07T03:14:51.914Z,0.40
2018-12-07T03:17:18.138Z,0.50
2018-12-07T03:19:44.321Z,0.40
2018-12-07T03:22:10.425Z,0.30
2018-12-07T03:24:37.590Z,0.50
2018-12-07T03:27:03.922Z,0.30
2018-12-07T03:29:30.195Z,0.50
2018-12-07T03:31:56.312Z,0.50
2018-12-07T03:34:22.423Z,0.50
2018-12-07T03:36:48.522Z,0.30
2018-12-07T03:39:14.669Z,0.50
2018-12-07T03:41:40.783Z,0.50
2018-12-07T03:44:06.900Z,0.30
2018-12-07T03:46:33.007Z,0.37
2018-12-07T03:49:00.114Z,0.40
2018-12-07T03:51:26.437Z,0.30
2018-12-07T03:53:52.547Z,0.40
2018-12-07T03:56:18.788Z,0.37
2018-12-07T03:58:44.905Z,0.50
2018-12-07T04:01:11.046Z,0.70
2018-12-07T04:03:37.154Z,0.35
2018-12-07T04:06:03.364Z,0.40
2018-12-07T04:08:29.491Z,0.30
2018-12-07T04:10:55.611Z,0.40
2018-12-07T04:13:21.740Z,0.57
2018-12-07T04:15:47.874Z,0.40
2018-12-07T04:18:14.129Z,0.30
2018-12-07T04:20:40.224Z,0.40
2018-12-07T04:23:06.329Z,0.40
2018-12-07T04:25:32.430Z,0.30
2018-12-07T04:27:58.537Z,0.40
2018-12-07T04:30:24.954Z,0.30
2018-12-07T04:32:51.072Z,0.40
2018-12-07T04:35:17.198Z,0.45
2018-12-07T04:37:43.294Z,0.40
2018-12-07T04:40:09.529Z,0.40
2018-12-07T04:42:35.663Z,0.40
2018-12-07T04:45:01.982Z,0.30
2018-12-07T04:47:28.155Z,0.45
2018-12-07T04:49:54.408Z,0.30
2018-12-07T04:52:21.906Z,0.30
2018-12-07T04:54:49.027Z,0.40
2018-12-07T04:57:15.108Z,0.40
2018-12-07T04:59:41.218Z,0.33
2018-12-07T05:02:07.347Z,0.33
2018-12-07T05:04:33.458Z,0.30
2018-12-07T05:06:59.538Z,0.30
2018-12-07T05:09:25.712Z,0.40
2018-12-07T05:11:51.912Z,0.30
2018-12-07T05:14:17.993Z,0.40
2018-12-07T05:16:44.078Z,0.40
2018-12-07T05:19:10.187Z,0.37
2018-12-07T05:21:36.298Z,0.35
2018-12-07T05:24:02.495Z,0.30
2018-12-07T05:26:28.574Z,0.20
2018-12-07T05:28:54.666Z,0.30
2018-12-07T05:31:20.767Z,0.40
2018-12-07T05:33:46.839Z,0.40
2018-12-07T05:36:12.930Z,0.37
2018-12-07T05:38:39.028Z,0.30
2018-12-07T05:41:05.222Z,0.45
2018-12-07T05:43:31.291Z,0.40
2018-12-07T05:45:57.416Z,0.30
2018-12-07T05:48:23.836Z,0.50
2018-12-07T05:50:50.130Z,0.40
2018-12-07T05:53:16.208Z,0.30
2018-12-07T05:55:42.302Z,0.50
2018-12-07T05:58:08.398Z,0.30
2018-12-07T06:00:34.523Z,0.30
2018-12-07T06:03:00.627Z,0.30
2018-12-07T06:05:26.724Z,0.30
2018-12-07T06:07:52.802Z,0.30
2018-12-07T06:10:18.984Z,0.40
2018-12-07T06:12:45.126Z,0.47
2018-12-07T06:15:11.447Z,0.50
2018-12-07T06:17:37.527Z,0.33
2018-12-07T06:20:03.858Z,0.47
2018-12-07T06:22:29.946Z,0.40
2018-12-07T06:24:56.067Z,0.40
2018-12-07T06:27:22.158Z,0.30
2018-12-07T06:29:48.410Z,0.30
2018-12-07T06:32:14.727Z,0.62
2018-12-07T06:34:40.895Z,0.40
2018-12-07T06:37:07.002Z,0.40
2018-12-07T06:39:33.101Z,0.40
2018-12-07T06:41:59.195Z,0.30
2018-12-07T06:44:25.244Z,0.40
2018-12-07T06:46:51.338Z,0.35
2018-12-07T06:49:17.426Z,0.30
2018-12-07T06:51:43.545Z,0.30
2018-12-07T06:54:09.865Z,0.70
2018-12-07T06:56:35.975Z,0.37
2018-12-07T06:59:02.061Z,0.35
2018-12-07T07:01:28.179Z,0.30
2018-12-07T07:03:54.378Z,0.30
2018-12-07T07:06:20.489Z,0.30
2018-12-07T07:08:46.597Z,0.30
2018-12-07T07:11:12.702Z,0.30
2018-12-07T07:13:38.781Z,0.40
2018-12-07T07:16:05.000Z,0.30
2018-12-07T07:18:31.076Z,0.47
2018-12-07T07:20:57.194Z,0.30
2018-12-07T07:23:23.307Z,0.30
2018-12-07T07:25:49.418Z,0.37
2018-12-07T07:28:15.493Z,0.60
2018-12-07T07:30:41.618Z,0.40
2018-12-07T07:33:07.725Z,0.30
2018-12-07T07:35:34.345Z,0.30
2018-12-07T07:38:01.504Z,0.40
2018-12-07T07:40:28.257Z,0.35
2018-12-07T07:42:54.342Z,0.30
2018-12-07T07:45:20.422Z,0.30
2018-12-07T07:47:46.551Z,0.40
2018-12-07T07:50:12.778Z,0.40
2018-12-07T07:52:39.574Z,0.33
2018-12-07T07:55:05.890Z,0.37
2018-12-07T07:57:31.983Z,0.40
2018-12-07T07:59:58.075Z,0.37
2018-12-07T08:02:24.404Z,0.50
2018-12-07T08:04:50.503Z,0.40
2018-12-07T08:07:16.569Z,0.40
2018-12-07T08:09:42.639Z,0.55
2018-12-07T08:12:08.758Z,0.50
2018-12-07T08:14:34.991Z,0.50
2018-12-07T08:17:01.347Z,0.68
2018-12-07T08:19:27.576Z,0.68
2018-12-07T08:21:53.663Z,0.90
2018-12-07T08:24:19.832Z,0.80
2018-12-07T08:26:45.953Z,0.90
2018-12-07T08:29:12.158Z,0.50
2018-12-07T08:31:38.285Z,0.50
2018-12-07T08:34:04.386Z,0.90
2018-12-07T08:36:30.583Z,0.65
2018-12-07T08:38:56.686Z,0.50
2018-12-07T08:41:22.858Z,0.70
2018-12-07T08:43:49.063Z,0.90
2018-12-07T08:46:15.161Z,0.80
2018-12-07T08:48:41.286Z,0.80
2018-12-07T08:51:07.374Z,0.90
2018-12-07T08:53:33.574Z,0.93
2018-12-07T08:55:59.674Z,0.70
2018-12-07T08:58:25.935Z,1.00
2018-12-07T09:00:52.108Z,1.00
2018-12-07T09:03:18.180Z,1.07
2018-12-07T09:05:44.410Z,1.13
2018-12-07T09:08:15.194Z,1.00
2018-12-07T09:10:38.943Z,0.80
2018-12-07T09:13:05.130Z,1.20
2018-12-07T09:15:31.355Z,0.80
2018-12-07T09:17:57.547Z,1.30
2018-12-07T09:20:23.653Z,1.13
2018-12-07T09:22:49.749Z,0.90
2018-12-07T09:25:16.474Z,0.97
2018-12-07T09:27:42.567Z,1.03
2018-12-07T09:30:09.282Z,1.00
2018-12-07T09:32:35.394Z,0.93
2018-12-07T09:35:01.576Z,0.93
2018-12-07T09:37:28.967Z,0.90
2018-12-07T09:39:55.318Z,0.90
2018-12-07T09:42:21.526Z,0.83
2018-12-07T09:44:47.625Z,0.80
2018-12-07T09:47:13.690Z,1.00
2018-12-07T09:49:39.890Z,0.93
2018-12-07T09:52:06.106Z,0.90
2018-12-07T09:54:32.174Z,1.30
2018-12-07T09:56:58.255Z,0.80
2018-12-07T09:59:24.342Z,0.80
2018-12-07T10:01:50.535Z,0.93
2018-12-07T10:04:16.603Z,0.40
2018-12-07T10:06:42.709Z,0.43
2018-12-07T10:09:08.783Z,0.63
2018-12-07T10:11:34.854Z,0.50
2018-12-07T10:14:00.967Z,0.50
2018-12-07T10:16:27.037Z,0.40
2018-12-07T10:18:53.130Z,0.30
2018-12-07T10:21:19.215Z,0.60
2018-12-07T10:23:45.294Z,0.40
2018-12-07T10:26:11.398Z,0.40
2018-12-07T10:28:37.481Z,0.50
2018-12-07T10:31:03.569Z,0.40
2018-12-07T10:33:29.651Z,0.40
2018-12-07T10:35:55.738Z,0.47
2018-12-07T10:38:21.808Z,0.40
2018-12-07T10:40:47.878Z,0.50
2018-12-07T10:43:13.970Z,0.50
2018-12-07T10:45:40.046Z,0.40
2018-12-07T10:48:06.132Z,0.40
2018-12-07T10:50:32.235Z,0.40
2018-12-07T10:52:58.311Z,0.43
2018-12-07T10:55:24.386Z,0.40
2018-12-07T10:57:50.481Z,0.30
2018-12-07T11:00:22.847Z,0.50
2018-12-07T11:02:53.050Z,0.53
2018-12-07T11:05:25.498Z,0.37
2018-12-07T11:07:57.882Z,0.50
2018-12-07T11:10:30.082Z,0.50
2018-12-07T11:13:02.418Z,0.40
2018-12-07T11:15:34.818Z,0.50
2018-12-07T11:18:07.170Z,0.50
2018-12-07T11:20:39.558Z,0.37
2018-12-07T11:23:11.885Z,0.50
2018-12-07T11:28:44.556Z,0.50
2018-12-07T11:31:17.070Z,0.37
2018-12-07T11:33:45.190Z,0.40
2018-12-07T11:36:11.381Z,0.40
2018-12-07T11:38:37.471Z,0.40
2018-12-07T11:41:03.765Z,0.60
2018-12-07T11:43:29.850Z,0.53
2018-12-07T11:45:55.938Z,0.60
2018-12-07T11:48:22.014Z,0.83
2018-12-07T11:50:48.121Z,0.43
2018-12-07T11:53:14.317Z,0.50
2018-12-07T11:55:41.418Z,0.40
2018-12-07T11:58:08.166Z,0.63
2018-12-07T12:00:34.278Z,0.50
2018-12-07T12:03:00.364Z,0.70
2018-12-07T12:05:26.442Z,0.30
2018-12-07T12:07:52.522Z,0.50
2018-12-07T12:10:18.609Z,0.40
2018-12-07T12:12:44.686Z,0.50
2018-12-07T12:15:10.782Z,0.40
2018-12-07T12:17:36.869Z,0.57
2018-12-07T12:20:05.079Z,1.70
2018-12-07T12:22:31.159Z,0.93
2018-12-07T12:24:57.251Z,0.70
2018-12-07T12:27:23.328Z,0.80
2018-12-07T12:29:49.438Z,0.63
2018-12-07T12:32:15.534Z,0.50
2018-12-07T12:34:41.647Z,0.50
2018-12-07T12:37:07.723Z,0.60
2018-12-07T12:39:33.933Z,0.53
2018-12-07T12:42:00.011Z,0.50
2018-12-07T12:44:26.118Z,0.70
2018-12-07T12:46:52.307Z,0.70
2018-12-07T12:49:18.391Z,0.60
2018-12-07T12:51:44.479Z,0.70
2018-12-07T12:54:10.556Z,0.70
2018-12-07T12:56:36.642Z,0.70
2018-12-07T12:59:02.742Z,0.77
2018-12-07T13:01:28.834Z,0.70
2018-12-07T13:03:55.030Z,0.77
2018-12-07T13:06:21.109Z,0.57
2018-12-07T13:08:47.215Z,1.03
2018-12-07T13:11:13.310Z,0.60
2018-12-07T13:13:39.390Z,0.90
2018-12-07T13:16:05.490Z,0.87
2018-12-07T13:18:31.569Z,1.10
2018-12-07T13:20:57.654Z,2.10
2018-12-07T13:23:23.726Z,4.67
2018-12-07T13:25:49.902Z,1.67
2018-12-07T13:28:15.978Z,1.10
2018-12-07T13:30:42.167Z,1.53
2018-12-07T13:33:08.290Z,1.23
2018-12-07T13:35:34.412Z,1.37
2018-12-07T13:38:00.482Z,0.70
2018-12-07T13:40:26.851Z,0.93
2018-12-07T13:42:53.149Z,0.83
2018-12-07T13:45:19.648Z,0.93
2018-12-07T13:47:46.069Z,1.30
2018-12-07T13:50:18.789Z,1.20
2018-12-07T13:52:45.065Z,1.10
2018-12-07T13:55:11.281Z,1.20
2018-12-07T13:57:37.579Z,1.00
2018-12-07T14:00:06.276Z,0.90
2018-12-07T14:02:32.557Z,0.87
2018-12-07T14:04:59.735Z,0.90
2018-12-07T14:07:26.110Z,0.60
2018-12-07T14:09:52.389Z,0.90
2018-12-07T14:12:18.775Z,0.93
2018-12-07T14:14:45.159Z,0.90
2018-12-07T14:17:11.431Z,1.30
2018-12-07T14:19:37.720Z,0.90
2018-12-07T14:22:04.114Z,1.00
2018-12-07T14:24:30.327Z,0.70
2018-12-07T14:26:59.472Z,1.00
2018-12-07T14:29:24.853Z,1.30
2018-12-07T14:31:51.099Z,1.00
2018-12-07T14:34:17.337Z,0.80
2018-12-07T14:36:43.823Z,1.30
2018-12-07T14:39:10.415Z,1.00
2018-12-07T14:41:36.664Z,0.80
2018-12-07T14:44:03.113Z,1.50
2018-12-07T14:46:29.344Z,1.63
2018-12-07T14:48:55.480Z,0.80
2018-12-07T14:51:21.761Z,1.00
2018-12-07T14:53:48.119Z,1.10
2018-12-07T14:56:14.243Z,0.90
2018-12-07T14:58:40.753Z,1.33
2018-12-07T15:01:06.997Z,0.90
2018-12-07T15:03:33.233Z,1.40
2018-12-07T15:05:59.539Z,0.80
2018-12-07T15:08:26.330Z,0.90
2018-12-07T15:10:52.641Z,0.90
2018-12-07T15:13:18.839Z,1.17
2018-12-07T15:15:45.101Z,1.03
2018-12-07T15:18:11.452Z,0.87
2018-12-07T15:20:37.665Z,3.00
2018-12-07T15:23:03.878Z,1.50
2018-12-07T15:25:30.136Z,1.20
2018-12-07T15:27:56.464Z,0.70
2018-12-07T15:30:22.771Z,1.60
2018-12-07T15:32:49.031Z,0.87
2018-12-07T15:35:15.346Z,1.57
2018-12-07T15:37:41.563Z,0.80
2018-12-07T15:40:07.810Z,0.85
2018-12-07T15:42:34.086Z,0.90
2018-12-07T15:45:00.403Z,0.83
2018-12-07T15:47:26.780Z,2.43
2018-12-07T15:49:53.171Z,1.53
2018-12-07T15:52:19.518Z,0.97
2018-12-07T15:54:45.876Z,1.80
2018-12-07T15:57:12.045Z,1.23
2018-12-07T15:59:38.197Z,0.90
2018-12-07T16:02:04.365Z,1.20
2018-12-07T16:04:30.573Z,2.15
2018-12-07T16:06:56.711Z,7.30
2018-12-07T16:09:22.993Z,13.10
2018-12-07T16:11:49.369Z,1.93
2018-12-07T16:14:15.685Z,2.33
2018-12-07T16:16:42.316Z,2.47
2018-12-07T16:19:08.695Z,2.10
2018-12-07T16:21:35.070Z,5.17
2018-12-07T16:24:01.378Z,7.80
2018-12-07T16:26:27.675Z,10.25
2018-12-07T16:28:53.856Z,11.90
2018-12-07T16:31:20.190Z,10.30
2018-12-07T16:33:46.398Z,9.93
2018-12-07T16:36:12.629Z,4.28
2018-12-07T16:38:38.817Z,4.05
2018-12-07T16:41:05.287Z,1.40
2018-12-07T16:43:31.629Z,1.02
2018-12-07T16:45:58.093Z,1.20
2018-12-07T16:48:24.375Z,1.63
2018-12-07T16:50:50.663Z,2.40
2018-12-07T16:53:16.984Z,6.40
2018-12-07T16:55:43.632Z,4.12
2018-12-07T16:58:09.941Z,3.00
2018-12-07T17:00:36.375Z,3.90
2018-12-07T17:03:02.950Z,3.77
2018-12-07T17:05:29.424Z,3.50
2018-12-07T17:07:55.942Z,4.60
2018-12-07T17:10:22.332Z,2.58
2018-12-07T17:12:48.580Z,1.65
2018-12-07T17:15:14.969Z,2.45
2018-12-07T17:17:41.278Z,5.47
2018-12-07T17:20:07.606Z,3.87
2018-12-07T17:22:33.940Z,3.25
2018-12-07T17:25:00.242Z,6.80
2018-12-07T17:27:26.854Z,1.42
2018-12-07T17:29:53.235Z,17.55
2018-12-07T17:32:19.459Z,3.77
2018-12-07T17:34:45.782Z,1.90
2018-12-07T17:37:12.107Z,2.12
2018-12-07T17:39:38.436Z,1.70
2018-12-07T17:42:04.776Z,1.67
2018-12-07T17:44:31.141Z,1.47
2018-12-07T17:46:57.276Z,1.75
2018-12-07T17:49:23.499Z,1.62
2018-12-07T17:51:49.720Z,1.20
2018-12-07T17:54:16.290Z,1.12
2018-12-07T17:56:42.900Z,1.17
2018-12-07T17:59:09.184Z,1.87
2018-12-07T18:01:35.297Z,1.50
2018-12-07T18:04:01.375Z,1.45
2018-12-07T18:06:27.528Z,2.30
2018-12-07T18:08:53.693Z,1.10
2018-12-07T18:11:20.156Z,1.22
2018-12-07T18:13:48.083Z,3.27
2018-12-07T18:16:14.478Z,4.78
2018-12-07T18:18:40.811Z,3.12
2018-12-07T18:21:07.082Z,2.65
2018-12-07T18:23:33.197Z,2.08
2018-12-07T18:25:59.516Z,2.70
2018-12-07T18:28:25.854Z,2.20
2018-12-07T18:30:52.324Z,2.10
2018-12-07T18:33:18.823Z,3.98
2018-12-07T18:35:45.469Z,3.05
2018-12-07T18:38:11.788Z,2.90
2018-12-07T18:40:38.005Z,1.70
2018-12-07T18:43:04.548Z,2.00
2018-12-07T18:45:30.950Z,1.77
2018-12-07T18:47:57.270Z,2.05
2018-12-07T18:50:23.747Z,1.90
2018-12-07T18:52:50.082Z,2.22
2018-12-07T18:55:16.285Z,2.50
2018-12-07T18:57:42.676Z,2.67
2018-12-07T19:00:09.361Z,3.50
2018-12-07T19:02:35.793Z,4.12
2018-12-07T19:05:02.474Z,2.67
2018-12-07T19:07:28.775Z,3.77
2018-12-07T19:09:56.030Z,14.83
2018-12-07T19:12:22.340Z,3.90
2018-12-07T19:14:48.540Z,5.65
2018-12-07T19:17:14.751Z,2.80
2018-12-07T19:19:41.015Z,2.60
2018-12-07T19:22:07.256Z,2.80
2018-12-07T19:24:33.617Z,2.58
2018-12-07T19:27:00.302Z,3.22
2018-12-07T19:29:26.599Z,3.85
2018-12-07T19:31:53.331Z,2.62
2018-12-07T19:34:20.063Z,3.30
2018-12-07T19:36:46.466Z,2.85
2018-12-07T19:39:12.803Z,3.62
2018-12-07T19:41:39.084Z,3.95
2018-12-07T19:44:05.407Z,3.12
2018-12-07T19:46:32.719Z,2.60
2018-12-07T19:48:59.207Z,2.80
2018-12-07T19:51:25.818Z,2.35
2018-12-07T19:53:52.399Z,2.55
2018-12-07T19:56:18.702Z,2.27
2018-12-07T19:58:45.359Z,1.80
2018-12-07T20:01:12.118Z,2.95
2018-12-07T20:03:38.507Z,2.15
2018-12-07T20:06:06.713Z,2.25
2018-12-07T20:08:33.006Z,2.15
2018-12-07T20:10:59.109Z,2.83
2018-12-07T20:13:25.639Z,3.00
2018-12-07T20:15:51.838Z,2.40
2018-12-07T20:18:17.989Z,2.80
2018-12-07T20:20:44.225Z,2.62
2018-12-07T20:23:10.621Z,1.98
2018-12-07T20:25:37.025Z,2.33
2018-12-07T20:28:03.777Z,2.55
2018-12-07T20:30:29.984Z,2.17
2018-12-07T20:32:56.412Z,2.33
2018-12-07T20:35:22.712Z,2.70
2018-12-07T20:37:49.041Z,2.22
2018-12-07T20:40:15.483Z,1.80
2018-12-07T20:42:41.652Z,2.02
2018-12-07T20:45:08.312Z,2.20
2018-12-07T20:47:34.635Z,1.92
2018-12-07T20:50:01.041Z,1.85
2018-12-07T20:52:27.490Z,2.30
2018-12-07T20:54:53.746Z,3.30
2018-12-07T20:57:19.967Z,2.67
2018-12-07T20:59:46.229Z,2.77
2018-12-07T21:02:12.636Z,2.50
2018-12-07T21:04:39.175Z,1.70
2018-12-07T21:07:32.734Z,3.30
2018-12-07T21:16:55.944Z,1.40
2018-12-07T21:19:22.173Z,0.88
2018-12-07T21:21:48.257Z,1.90
2018-12-07T21:24:14.466Z,0.95
2018-12-07T21:26:40.584Z,1.32
2018-12-07T21:29:07.058Z,0.60
2018-12-07T21:31:33.518Z,0.80
2018-12-07T21:34:03.706Z,0.78
2018-12-07T21:36:35.208Z,0.60
2018-12-07T21:39:01.522Z,0.53
2018-12-07T21:41:27.747Z,0.68
2018-12-07T21:43:54.266Z,0.60
2018-12-07T21:46:20.667Z,0.72
2018-12-07T21:48:46.979Z,1.90
2018-12-07T21:51:17.222Z,0.60
2018-12-07T21:53:43.429Z,0.50
2018-12-07T21:56:09.905Z,0.40
2018-12-07T21:58:36.414Z,0.40
2018-12-07T22:01:02.775Z,0.40
2018-12-07T22:03:28.985Z,0.50
2018-12-07T22:05:55.687Z,0.53
2018-12-07T22:08:22.144Z,0.40
2018-12-07T22:10:48.450Z,0.40
2018-12-07T22:13:14.944Z,0.30
2018-12-07T22:15:41.358Z,0.40
2018-12-07T22:18:07.586Z,0.50
2018-12-07T22:20:33.759Z,0.50
2018-12-07T22:23:00.041Z,0.40
2018-12-07T22:25:26.175Z,0.50
2018-12-07T22:27:52.592Z,0.50
2018-12-07T22:30:19.387Z,0.50
2018-12-07T22:32:45.852Z,0.68
2018-12-07T22:35:12.139Z,0.62
2018-12-07T22:37:38.484Z,0.55
2018-12-07T22:40:05.759Z,0.50
2018-12-07T22:42:32.241Z,0.70
2018-12-07T22:44:58.583Z,0.60
2018-12-07T22:47:24.802Z,0.60
2018-12-07T22:49:50.942Z,0.47
2018-12-07T22:52:17.074Z,0.70
2018-12-07T22:54:43.138Z,0.33
2018-12-07T22:57:09.228Z,0.50
2018-12-07T22:59:35.331Z,0.60
2018-12-07T23:02:01.525Z,0.30
2018-12-07T23:04:27.783Z,0.40
2018-12-07T23:06:53.896Z,0.53
2018-12-07T23:09:19.986Z,2.05
2018-12-07T23:11:46.164Z,0.53
2018-12-07T23:14:12.270Z,0.50
2018-12-07T23:16:38.363Z,0.42
2018-12-07T23:19:04.586Z,0.50
2018-12-07T23:21:30.663Z,0.50
2018-12-07T23:23:56.766Z,0.40
2018-12-07T23:26:22.971Z,0.70
2018-12-07T23:28:49.178Z,0.50
2018-12-07T23:31:15.257Z,0.60
2018-12-07T23:33:41.351Z,0.57
2018-12-07T23:36:07.541Z,0.60
2018-12-07T23:38:33.642Z,0.60
2018-12-07T23:40:59.731Z,0.78
2018-12-07T23:43:25.931Z,0.90
2018-12-07T23:45:52.017Z,0.70
2018-12-07T23:48:18.150Z,0.60
2018-12-07T23:50:44.226Z,0.78
2018-12-07T23:53:10.331Z,0.62
2018-12-07T23:55:36.538Z,0.60
2018-12-07T23:58:02.836Z,0.60
